createdAt,value
2023-07-03T00:00:55.380Z,97323.97
2023-07-03T00:03:41.733Z,97320.86
2023-07-03T00:06:08.271Z,97321.24
2023-07-03T00:08:34.778Z,97324.45
2023-07-03T00:11:01.482Z,97324.38
2023-07-03T00:13:28.031Z,97326.17
2023-07-03T00:15:58.063Z,97328.14
2023-07-03T00:18:24.585Z,97327.55
2023-07-03T00:20:50.992Z,97329.82
2023-07-03T00:23:17.486Z,97330.64
2023-07-03T00:25:43.944Z,97334.11
2023-07-03T00:28:10.270Z,97336.76
2023-07-03T00:30:36.963Z,97341.29
2023-07-03T00:33:03.351Z,97344.10
2023-07-03T00:35:29.746Z,97348.16
2023-07-03T00:37:56.107Z,97345.16
2023-07-03T00:40:22.496Z,97345.36
2023-07-03T00:42:48.893Z,97348.91
2023-07-03T00:45:15.311Z,97352.05
2023-07-03T00:47:41.764Z,97354.25
2023-07-03T00:50:09.183Z,97357.78
2023-07-03T00:52:35.620Z,97353.30
2023-07-03T00:55:01.966Z,97349.67
2023-07-03T00:57:28.504Z,97351.58
2023-07-03T00:59:54.912Z,97350.72
2023-07-03T01:02:34.458Z,97354.53
2023-07-03T01:05:16.755Z,97350.77
2023-07-03T01:07:44.278Z,97352.68
2023-07-03T01:10:13.413Z,97350.25
2023-07-03T01:12:42.297Z,97351.73
2023-07-03T01:15:10.778Z,97347.54
2023-07-03T01:17:38.840Z,97343.73
2023-07-03T01:20:06.258Z,97342.15
2023-07-03T01:22:36.189Z,97344.15
2023-07-03T01:25:06.541Z,97341.15
2023-07-03T01:27:34.842Z,97338.57
2023-07-03T01:30:02.164Z,97341.27
2023-07-03T01:32:30.069Z,97339.46
2023-07-03T01:34:57.082Z,97338.94
2023-07-03T01:37:25.116Z,97342.80
2023-07-03T01:39:52.102Z,97345.09
2023-07-03T01:42:20.716Z,97343.98
2023-07-03T01:44:47.227Z,97350.07
2023-07-03T01:47:13.978Z,97349.14
2023-07-03T01:49:40.382Z,97343.39
2023-07-03T01:52:11.329Z,97346.22
2023-07-03T01:54:40.681Z,97343.30
2023-07-03T01:57:07.845Z,97346.80
2023-07-03T01:59:34.763Z,97345.23
2023-07-03T02:02:01.250Z,97343.13
2023-07-03T02:04:30.958Z,97343.61
2023-07-03T02:06:58.318Z,97346.93
2023-07-03T02:09:25.501Z,97342.77
2023-07-03T02:11:52.712Z,97346.63
2023-07-03T02:14:19.255Z,97352.27
2023-07-03T02:16:45.820Z,97348.27
2023-07-03T02:19:12.177Z,97347.16
2023-07-03T02:21:38.583Z,97347.94
2023-07-03T02:24:04.949Z,97350.20
2023-07-03T02:26:32.102Z,97349.44
2023-07-03T02:28:58.394Z,97351.96
2023-07-03T02:31:24.883Z,97347.23
2023-07-03T02:33:51.264Z,97347.81
2023-07-03T02:36:17.623Z,97348.45
2023-07-03T02:38:43.970Z,97352.18
2023-07-03T02:41:10.672Z,97351.70
2023-07-03T02:43:37.043Z,97354.71
2023-07-03T02:46:04.332Z,97351.44
2023-07-03T02:48:30.832Z,97352.57
2023-07-03T02:50:57.633Z,97351.04
2023-07-03T02:53:24.550Z,97355.71
2023-07-03T02:55:56.678Z,97354.23
2023-07-03T02:58:24.399Z,97355.98
2023-07-03T03:00:50.876Z,97355.98
2023-07-03T03:03:17.680Z,97353.91
2023-07-03T03:05:44.165Z,97357.75
2023-07-03T03:08:10.835Z,97355.81
2023-07-03T03:10:37.554Z,97357.69
2023-07-03T03:13:04.349Z,97357.55
2023-07-03T03:15:33.828Z,97357.81
2023-07-03T03:18:00.473Z,97360.19
2023-07-03T03:20:27.000Z,97358.85
2023-07-03T03:22:53.349Z,97357.46
2023-07-03T03:25:19.788Z,97360.07
2023-07-03T03:27:46.160Z,97356.57
2023-07-03T03:30:12.630Z,97359.73
2023-07-03T03:32:40.154Z,97355.98
2023-07-03T03:35:06.979Z,97353.71
2023-07-03T03:37:33.712Z,97358.77
2023-07-03T03:40:00.941Z,97353.15
2023-07-03T03:42:27.399Z,97352.73
2023-07-03T03:44:54.478Z,97354.58
2023-07-03T03:47:22.805Z,97353.71
2023-07-03T03:49:49.689Z,97358.20
2023-07-03T03:52:16.072Z,97357.55
2023-07-03T03:54:42.492Z,97358.89
2023-07-03T03:57:08.953Z,97360.61
2023-07-03T03:59:35.770Z,97361.13
2023-07-03T04:02:02.243Z,97364.52
2023-07-03T04:04:28.807Z,97362.10
2023-07-03T04:06:55.259Z,97364.20
2023-07-03T04:09:21.583Z,97359.68
2023-07-03T04:11:47.943Z,97360.15
2023-07-03T04:14:14.333Z,97360.50
2023-07-03T04:16:40.671Z,97359.57
2023-07-03T04:19:07.067Z,97360.90
2023-07-03T04:21:33.370Z,97361.80
2023-07-03T04:23:59.671Z,97360.95
2023-07-03T04:26:26.074Z,97361.52
2023-07-03T04:28:52.454Z,97362.84
2023-07-03T04:31:18.985Z,97365.48
2023-07-03T04:33:45.409Z,97362.80
2023-07-03T04:36:12.362Z,97363.13
2023-07-03T04:38:39.629Z,97362.06
2023-07-03T04:41:05.919Z,97357.74
2023-07-03T04:43:32.253Z,97357.91
2023-07-03T04:45:58.673Z,97356.00
2023-07-03T04:48:25.224Z,97363.96
2023-07-03T04:50:51.545Z,97361.41
2023-07-03T04:53:18.604Z,97366.14
2023-07-03T04:55:44.909Z,97366.95
2023-07-03T04:58:11.220Z,97369.48
2023-07-03T05:00:37.601Z,97365.99
2023-07-03T05:03:04.342Z,97366.31
2023-07-03T05:05:30.847Z,97368.27
2023-07-03T05:07:58.898Z,97364.94
2023-07-03T05:10:25.677Z,97362.13
2023-07-03T05:12:52.087Z,97363.35
2023-07-03T05:15:19.393Z,97368.88
2023-07-03T05:17:49.856Z,97370.27
2023-07-03T05:20:17.388Z,97368.71
2023-07-03T05:22:44.507Z,97364.15
2023-07-03T05:25:11.810Z,97365.20
2023-07-03T05:27:38.670Z,97370.85
2023-07-03T05:30:06.003Z,97384.03
2023-07-03T05:32:32.563Z,97383.52
2023-07-03T05:35:02.534Z,97385.20
2023-07-03T05:37:29.204Z,97385.42
2023-07-03T05:39:55.503Z,97391.37
2023-07-03T05:42:21.867Z,97387.09
2023-07-03T05:44:48.205Z,97384.99
2023-07-03T05:47:15.408Z,97388.52
2023-07-03T05:49:41.999Z,97386.60
2023-07-03T05:52:09.219Z,97386.68
2023-07-03T05:54:35.556Z,97383.27
2023-07-03T05:57:09.340Z,97385.67
2023-07-03T05:59:36.667Z,97387.64
2023-07-03T06:02:04.472Z,97388.59
2023-07-03T06:04:30.957Z,97390.49
2023-07-03T06:06:57.426Z,97390.17
2023-07-03T06:09:24.362Z,97394.71
2023-07-03T06:11:50.773Z,97396.83
2023-07-03T06:14:17.841Z,97400.16
2023-07-03T06:16:45.261Z,97398.83
2023-07-03T06:19:12.268Z,97399.56
2023-07-03T06:21:38.798Z,97404.67
2023-07-03T06:24:05.764Z,97404.14
2023-07-03T06:26:32.228Z,97409.33
2023-07-03T06:28:58.566Z,97406.15
2023-07-03T06:31:24.931Z,97407.24
2023-07-03T06:33:51.500Z,97409.95
2023-07-03T06:36:17.861Z,97410.20
2023-07-03T06:38:44.522Z,97412.25
2023-07-03T06:41:10.911Z,97413.64
2023-07-03T06:43:37.254Z,97409.36
2023-07-03T06:46:03.625Z,97407.14
2023-07-03T06:48:29.947Z,97406.25
2023-07-03T06:51:05.938Z,97407.20
2023-07-03T06:53:32.356Z,97408.70
2023-07-03T06:55:59.537Z,97407.66
2023-07-03T06:58:26.577Z,97406.33
2023-07-03T07:00:53.034Z,97402.57
2023-07-03T07:03:19.641Z,97403.17
2023-07-03T07:05:46.235Z,97403.33
2023-07-03T07:08:12.813Z,97403.38
2023-07-03T07:10:39.411Z,97399.58
2023-07-03T07:13:06.573Z,97399.68
2023-07-03T07:15:37.486Z,97397.68
2023-07-03T07:18:05.197Z,97397.56
2023-07-03T07:20:36.157Z,97391.30
2023-07-03T07:23:02.575Z,97393.42
2023-07-03T07:25:28.880Z,97395.60
2023-07-03T07:27:55.331Z,97390.84
2023-07-03T07:30:21.705Z,97390.23
2023-07-03T07:32:48.648Z,97390.65
2023-07-03T07:35:15.262Z,97398.45
2023-07-03T07:37:41.927Z,97391.38
2023-07-03T07:40:09.083Z,97389.02
2023-07-03T07:42:35.849Z,97391.89
2023-07-03T07:45:02.547Z,97388.06
2023-07-03T07:47:29.540Z,97391.59
2023-07-03T07:49:55.928Z,97383.15
2023-07-03T07:52:22.368Z,97385.76
2023-07-03T07:54:48.671Z,97388.90
2023-07-03T07:57:15.023Z,97391.22
2023-07-03T07:59:41.345Z,97394.20
2023-07-03T08:02:07.870Z,97388.81
2023-07-03T08:04:34.408Z,97386.20
2023-07-03T08:07:00.992Z,97387.78
2023-07-03T08:09:27.393Z,97386.84
2023-07-03T08:11:53.771Z,97384.80
2023-07-03T08:14:20.205Z,97382.37
2023-07-03T08:16:46.735Z,97378.17
2023-07-03T08:19:13.075Z,97381.52
2023-07-03T08:21:39.380Z,97373.83
2023-07-03T08:24:06.435Z,97371.44
2023-07-03T08:26:32.964Z,97369.10
2023-07-03T08:28:59.355Z,97369.51
2023-07-03T08:31:25.780Z,97374.39
2023-07-03T08:33:52.292Z,97374.52
2023-07-03T08:38:48.076Z,97370.77
2023-07-03T08:41:15.308Z,97371.04
2023-07-03T08:43:43.234Z,97369.57
2023-07-03T08:46:11.807Z,97369.54
2023-07-03T08:48:39.147Z,97369.05
2023-07-03T08:51:07.648Z,97365.98
2023-07-03T08:53:39.463Z,97370.02
2023-07-03T08:56:11.902Z,97369.58
2023-07-03T08:58:38.278Z,97376.45
2023-07-03T09:01:23.334Z,97375.20
2023-07-03T09:03:59.800Z,97375.33
2023-07-03T09:06:40.425Z,97376.29
2023-07-03T09:09:06.793Z,97381.15
2023-07-03T09:11:35.828Z,97381.17
2023-07-03T09:14:03.336Z,97384.61
2023-07-03T09:16:30.717Z,97380.29
2023-07-03T09:19:00.069Z,97378.98
2023-07-03T09:21:28.682Z,97382.42
2023-07-03T09:24:00.611Z,97385.36
2023-07-03T09:26:32.219Z,97380.23
2023-07-03T09:28:58.666Z,97384.66
2023-07-03T09:31:26.874Z,97384.67
2023-07-03T09:33:53.441Z,97384.56
2023-07-03T09:36:28.677Z,97389.17
2023-07-03T09:38:55.072Z,97382.13
2023-07-03T09:41:29.316Z,97377.13
2023-07-03T09:43:55.960Z,97374.65
2023-07-03T09:46:23.070Z,97378.80
2023-07-03T09:48:50.669Z,97381.39
2023-07-03T09:51:20.953Z,97387.02
2023-07-03T09:53:47.272Z,97387.36
2023-07-03T09:56:16.663Z,97389.81
2023-07-03T09:58:48.562Z,97390.95
2023-07-03T10:04:04.541Z,97395.87
2023-07-03T10:07:06.595Z,97400.03
2023-07-03T10:12:11.453Z,97392.55
2023-07-03T10:14:41.121Z,97389.36
2023-07-03T10:17:08.628Z,97395.52
2023-07-03T10:19:35.084Z,97395.05
2023-07-03T10:22:01.816Z,97393.69
2023-07-03T10:24:28.339Z,97394.22
2023-07-03T10:26:57.876Z,97399.94
2023-07-03T10:29:26.698Z,97398.52
2023-07-03T10:31:55.746Z,97400.13
2023-07-03T10:34:48.282Z,97391.17
2023-07-03T10:37:17.840Z,97395.64
2023-07-03T10:39:58.749Z,97390.55
2023-07-03T10:42:30.097Z,97388.79
2023-07-03T10:44:59.568Z,97388.41
2023-07-03T10:47:29.006Z,97396.26
2023-07-03T10:49:55.487Z,97397.18
2023-07-03T10:52:42.605Z,97393.73
2023-07-03T10:55:18.502Z,97388.51
2023-07-03T10:57:52.408Z,97389.20
2023-07-03T11:00:25.403Z,97382.69
2023-07-03T11:02:59.805Z,97378.67
2023-07-03T11:05:29.261Z,97380.00
2023-07-03T11:08:00.787Z,97380.33
2023-07-03T11:10:37.067Z,97378.63
2023-07-03T11:13:16.221Z,97373.08
2023-07-03T11:16:05.450Z,97381.11
2023-07-03T11:23:54.184Z,97373.82
2023-07-03T11:28:52.675Z,97369.73
2023-07-03T11:31:19.613Z,97368.95
2023-07-03T11:36:49.215Z,97374.02
2023-07-03T11:44:39.914Z,97379.80
2023-07-03T11:47:25.675Z,97372.45
2023-07-03T11:49:58.587Z,97366.59
2023-07-03T11:52:28.992Z,97369.07
2023-07-03T11:54:59.974Z,97363.39
2023-07-03T11:57:33.866Z,97363.38
2023-07-03T12:00:17.665Z,97366.25
2023-07-03T12:02:44.118Z,97357.55
2023-07-03T12:05:10.554Z,97362.50
2023-07-03T12:07:36.928Z,97365.66
2023-07-03T12:10:32.700Z,97368.14
2023-07-03T12:13:17.824Z,97368.86
2023-07-03T12:15:44.240Z,97370.12
2023-07-03T12:18:11.220Z,97370.63
2023-07-03T12:20:38.155Z,97376.19
2023-07-03T12:23:04.686Z,97373.01
2023-07-03T12:25:31.103Z,97374.27
2023-07-03T12:28:08.698Z,97376.02
2023-07-03T12:30:35.086Z,97375.62
2023-07-03T12:33:01.468Z,97374.54
2023-07-03T12:35:32.171Z,97375.32
2023-07-03T12:38:09.986Z,97369.45
2023-07-03T12:40:43.738Z,97364.17
2023-07-03T12:43:10.568Z,97366.47
2023-07-03T12:45:37.172Z,97362.64
2023-07-03T12:48:04.752Z,97367.15
2023-07-03T12:50:32.022Z,97361.50
2023-07-03T12:52:59.294Z,97359.66
2023-07-03T12:55:35.247Z,97361.92
2023-07-03T12:58:01.773Z,97361.60
2023-07-03T13:00:32.312Z,97359.91
2023-07-03T13:02:59.920Z,97358.07
2023-07-03T13:05:26.868Z,97356.03
2023-07-03T13:07:53.358Z,97352.40
2023-07-03T13:10:20.602Z,97353.03
2023-07-03T13:13:02.349Z,97353.80
2023-07-03T13:15:30.663Z,97355.59
2023-07-03T13:18:04.932Z,97358.75
2023-07-03T13:20:31.454Z,97356.52
2023-07-03T13:22:59.772Z,97358.37
2023-07-03T13:25:36.835Z,97353.18
2023-07-03T13:28:06.377Z,97351.85
2023-07-03T13:30:34.229Z,97352.44
2023-07-03T13:33:08.494Z,97349.95
2023-07-03T13:35:35.098Z,97351.81
2023-07-03T13:38:11.749Z,97357.93
2023-07-03T13:40:38.152Z,97351.45
2023-07-03T13:43:04.496Z,97350.02
2023-07-03T13:45:31.463Z,97352.60
2023-07-03T13:47:58.003Z,97349.77
2023-07-03T13:50:24.379Z,97345.21
2023-07-03T13:52:50.796Z,97346.79
2023-07-03T13:55:17.154Z,97349.94
2023-07-03T13:57:43.540Z,97344.67
2023-07-03T14:00:10.299Z,97347.48
2023-07-03T14:02:48.085Z,97350.85
2023-07-03T14:05:16.050Z,97351.06
2023-07-03T14:07:42.488Z,97351.61
2023-07-03T14:10:14.106Z,97348.88
2023-07-03T14:12:42.904Z,97357.02
2023-07-03T14:15:17.602Z,97355.07
2023-07-03T14:17:44.420Z,97358.71
2023-07-03T14:20:11.468Z,97352.27
2023-07-03T14:22:38.614Z,97355.75
2023-07-03T14:25:05.619Z,97354.41
2023-07-03T14:27:35.423Z,97359.27
2023-07-03T14:30:01.814Z,97357.25
2023-07-03T14:32:39.851Z,97358.89
2023-07-03T14:35:14.660Z,97360.17
2023-07-03T14:37:41.032Z,97361.20
2023-07-03T14:40:07.662Z,97359.86
2023-07-03T14:42:34.021Z,97356.15
2023-07-03T14:45:00.393Z,97363.54
2023-07-03T14:47:26.788Z,97365.73
2023-07-03T14:49:53.416Z,97360.86
2023-07-03T14:52:20.616Z,97357.23
2023-07-03T14:54:47.379Z,97347.21
2023-07-03T14:57:14.447Z,97357.14
2023-07-03T14:59:42.441Z,97352.86
2023-07-03T15:02:09.181Z,97356.61
2023-07-03T15:04:35.743Z,97356.10
2023-07-03T15:07:02.097Z,97354.60
2023-07-03T15:09:28.444Z,97354.52
2023-07-03T15:11:54.913Z,97356.39
2023-07-03T15:14:21.228Z,97352.95
2023-07-03T15:16:47.684Z,97349.44
2023-07-03T15:19:14.020Z,97349.58
2023-07-03T15:21:40.379Z,97344.24
2023-07-03T15:24:07.520Z,97344.77
2023-07-03T15:26:34.140Z,97345.23
2023-07-03T15:29:00.562Z,97347.21
2023-07-03T15:31:27.058Z,97356.35
2023-07-03T15:33:53.984Z,97358.04
2023-07-03T15:36:20.338Z,97350.36
2023-07-03T15:38:46.848Z,97358.42
2023-07-03T15:41:13.239Z,97349.52
2023-07-03T15:43:39.617Z,97350.46
2023-07-03T15:46:06.034Z,97351.50
2023-07-03T15:48:32.712Z,97353.41
2023-07-03T15:50:59.819Z,97353.20
2023-07-03T15:53:26.826Z,97359.40
2023-07-03T15:56:02.881Z,97358.70
2023-07-03T15:58:30.845Z,97353.96
2023-07-03T16:01:06.493Z,97351.27
2023-07-03T16:03:34.733Z,97358.70
2023-07-03T16:06:03.825Z,97356.88
2023-07-03T16:08:31.070Z,97358.23
2023-07-03T16:10:57.486Z,97359.75
2023-07-03T16:13:25.888Z,97362.95
2023-07-03T16:15:52.639Z,97366.48
2023-07-03T16:18:19.132Z,97358.52
2023-07-03T16:20:51.334Z,97359.63
2023-07-03T16:23:17.713Z,97361.61
2023-07-03T16:25:48.594Z,97366.64
2023-07-03T16:28:15.298Z,97369.20
2023-07-03T16:30:41.742Z,97369.59
2023-07-03T16:33:08.200Z,97372.73
2023-07-03T16:35:34.575Z,97368.77
2023-07-03T16:38:00.911Z,97372.42
2023-07-03T16:40:28.567Z,97375.30
2023-07-03T16:42:55.041Z,97377.28
2023-07-03T16:45:21.476Z,97378.50
2023-07-03T16:47:47.998Z,97383.13
2023-07-03T16:50:14.442Z,97380.91
2023-07-03T16:52:40.794Z,97380.17
2023-07-03T16:55:07.321Z,97383.06
2023-07-03T16:57:33.666Z,97384.08
2023-07-03T17:00:00.101Z,97387.06
2023-07-03T17:02:26.596Z,97384.55
2023-07-03T17:04:52.962Z,97387.51
2023-07-03T17:07:19.447Z,97384.33
2023-07-03T17:09:45.874Z,97387.02
2023-07-03T17:12:12.282Z,97384.48
2023-07-03T17:14:38.643Z,97390.35
2023-07-03T17:17:07.523Z,97388.20
2023-07-03T17:19:33.950Z,97385.79
2023-07-03T17:22:00.327Z,97390.35
2023-07-03T17:24:26.623Z,97389.73
2023-07-03T17:26:53.042Z,97387.69
2023-07-03T17:29:19.525Z,97393.02
2023-07-03T17:31:45.995Z,97394.89
2023-07-03T17:34:12.787Z,97392.15
2023-07-03T17:36:39.172Z,97395.54
2023-07-03T17:39:05.520Z,97389.41
2023-07-03T17:41:31.848Z,97388.02
2023-07-03T17:43:58.228Z,97394.98
2023-07-03T17:46:27.636Z,97390.91
2023-07-03T17:48:54.023Z,97391.77
2023-07-03T17:51:20.440Z,97392.33
2023-07-03T17:53:46.849Z,97392.33
2023-07-03T17:56:13.268Z,97391.52
2023-07-03T17:58:39.674Z,97394.82
2023-07-03T18:01:06.083Z,97394.59
2023-07-03T18:03:32.635Z,97395.52
2023-07-03T18:05:59.169Z,97391.15
2023-07-03T18:08:25.671Z,97391.13
2023-07-03T18:10:52.090Z,97391.85
2023-07-03T18:13:18.653Z,97393.81
2023-07-03T18:15:49.728Z,97391.63
2023-07-03T18:18:21.374Z,97385.09
2023-07-03T18:20:48.353Z,97386.29
2023-07-03T18:23:14.715Z,97387.45
2023-07-03T18:25:41.213Z,97386.70
2023-07-03T18:28:08.310Z,97386.52
2023-07-03T18:30:34.672Z,97389.42
2023-07-03T18:33:01.141Z,97387.83
2023-07-03T18:35:27.602Z,97389.27
2023-07-03T18:37:54.021Z,97387.59
2023-07-03T18:40:20.463Z,97389.81
2023-07-03T18:42:46.893Z,97398.81
2023-07-03T18:45:13.960Z,97401.46
2023-07-03T18:47:40.426Z,97406.55
2023-07-03T18:50:07.921Z,97403.75
2023-07-03T18:52:34.404Z,97405.27
2023-07-03T18:55:00.921Z,97403.52
2023-07-03T18:57:27.451Z,97401.23
2023-07-03T18:59:53.767Z,97403.48
2023-07-03T19:02:20.150Z,97405.37
2023-07-03T19:04:46.604Z,97409.48
2023-07-03T19:07:13.002Z,97412.62
2023-07-03T19:09:39.383Z,97414.51
2023-07-03T19:12:08.066Z,97417.97
2023-07-03T19:14:35.957Z,97424.34
2023-07-03T19:17:02.954Z,97427.85
2023-07-03T19:19:36.662Z,97432.55
2023-07-03T19:22:03.156Z,97436.39
2023-07-03T19:24:32.057Z,97437.79
2023-07-03T19:26:58.395Z,97440.94
2023-07-03T19:29:24.875Z,97442.25
2023-07-03T19:31:51.237Z,97445.77
2023-07-03T19:34:17.616Z,97446.58
2023-07-03T19:36:44.446Z,97449.27
2023-07-03T19:39:10.924Z,97448.56
2023-07-03T19:41:39.806Z,97443.91
2023-07-03T19:44:07.814Z,97444.27
2023-07-03T19:46:35.314Z,97447.80
2023-07-03T19:49:05.873Z,97447.91
2023-07-03T19:51:32.889Z,97447.67
2023-07-03T19:53:59.248Z,97449.98
2023-07-03T19:56:25.819Z,97447.04
2023-07-03T19:58:52.252Z,97446.66
2023-07-03T20:01:18.952Z,97447.75
2023-07-03T20:03:45.708Z,97448.77
2023-07-03T20:06:13.282Z,97447.97
2023-07-03T20:08:39.640Z,97452.05
2023-07-03T20:11:06.138Z,97453.48
2023-07-03T20:13:32.588Z,97451.80
2023-07-03T20:16:03.210Z,97452.45
2023-07-03T20:18:29.852Z,97454.52
2023-07-03T20:20:56.378Z,97455.93
2023-07-03T20:23:22.756Z,97455.95
2023-07-03T20:25:52.959Z,97459.61
2023-07-03T20:28:19.627Z,97459.55
2023-07-03T20:30:46.739Z,97459.70
2023-07-03T20:33:13.158Z,97463.02
2023-07-03T20:35:39.594Z,97460.89
2023-07-03T20:38:05.987Z,97462.13
2023-07-03T20:40:32.861Z,97466.36
2023-07-03T20:42:59.321Z,97466.56
2023-07-03T20:45:26.362Z,97467.04
2023-07-03T20:47:52.883Z,97464.46
2023-07-03T20:50:19.300Z,97464.22
2023-07-03T20:52:45.768Z,97462.39
2023-07-03T20:55:12.118Z,97464.50
2023-07-03T20:57:38.481Z,97462.98
2023-07-03T21:00:05.049Z,97463.54
2023-07-03T21:02:32.051Z,97468.27
2023-07-03T21:04:59.185Z,97467.46
2023-07-03T21:07:25.626Z,97468.60
2023-07-03T21:09:52.301Z,97469.91
2023-07-03T21:12:18.654Z,97471.58
2023-07-03T21:14:45.049Z,97476.31
2023-07-03T21:17:11.610Z,97477.54
2023-07-03T21:19:37.998Z,97479.50
2023-07-03T21:22:04.577Z,97483.23
2023-07-03T21:24:31.062Z,97480.48
2023-07-03T21:26:57.478Z,97481.56
2023-07-03T21:29:23.968Z,97481.45
2023-07-03T21:31:50.435Z,97480.98
2023-07-03T21:34:16.860Z,97483.09
2023-07-03T21:36:43.324Z,97483.54
2023-07-03T21:39:10.273Z,97485.48
2023-07-03T21:41:37.464Z,97486.05
2023-07-03T21:44:14.012Z,97482.71
2023-07-03T21:46:40.673Z,97485.91
2023-07-03T21:49:10.233Z,97486.77
2023-07-03T21:51:36.625Z,97486.83
2023-07-03T21:54:03.040Z,97482.64
2023-07-03T21:56:30.057Z,97485.31
2023-07-03T21:59:01.266Z,97485.23
2023-07-03T22:01:38.104Z,97485.09
2023-07-03T22:04:05.831Z,97488.98
2023-07-03T22:06:32.297Z,97490.70
2023-07-03T22:08:59.006Z,97487.05
2023-07-03T22:11:26.189Z,97486.05
2023-07-03T22:13:52.599Z,97486.05
2023-07-03T22:16:19.676Z,97486.36
2023-07-03T22:18:46.131Z,97487.43
2023-07-03T22:21:13.055Z,97485.73
2023-07-03T22:23:39.542Z,97484.41
2023-07-03T22:26:05.942Z,97486.27
2023-07-03T22:28:32.379Z,97484.77
2023-07-03T22:30:58.796Z,97480.18
2023-07-03T22:33:25.351Z,97485.02
2023-07-03T22:35:52.623Z,97479.79
2023-07-03T22:38:19.420Z,97480.08
2023-07-03T22:40:48.473Z,97481.30
2023-07-03T22:43:14.869Z,97484.83
2023-07-03T22:45:41.194Z,97489.25
2023-07-03T22:48:07.669Z,97489.27
2023-07-03T22:50:34.092Z,97492.44
2023-07-03T22:53:00.459Z,97493.80
2023-07-03T22:55:27.002Z,97493.74
2023-07-03T22:57:53.397Z,97492.89
2023-07-03T23:00:19.743Z,97488.58
2023-07-03T23:02:46.254Z,97488.52
2023-07-03T23:05:13.344Z,97489.83
2023-07-03T23:07:39.982Z,97491.75
2023-07-03T23:10:06.843Z,97491.74
2023-07-03T23:12:33.707Z,97492.95
2023-07-03T23:15:00.286Z,97497.00
2023-07-03T23:17:30.891Z,97498.17
2023-07-03T23:19:57.563Z,97501.58
2023-07-03T23:22:24.695Z,97502.44
2023-07-03T23:24:54.728Z,97497.15
2023-07-03T23:27:21.518Z,97494.09
2023-07-03T23:29:48.259Z,97496.50
2023-07-03T23:32:14.812Z,97500.34
2023-07-03T23:34:41.704Z,97500.73
2023-07-03T23:37:08.312Z,97502.14
2023-07-03T23:39:37.963Z,97496.27
2023-07-03T23:42:05.185Z,97501.66
2023-07-03T23:44:31.924Z,97503.08
2023-07-03T23:46:58.364Z,97501.36
2023-07-03T23:49:24.965Z,97497.63
2023-07-03T23:51:51.403Z,97498.36
2023-07-03T23:54:17.787Z,97501.14
2023-07-03T23:56:45.327Z,97501.50
2023-07-03T23:59:11.664Z,97497.96
